sensor_id;sensor_type;location;lat;lon;timestamp;temperature;humidity
2439;DHT22;14509;47.992;7.848;2023-09-18T02:41:44;23.80;71.00
2439;DHT22;14509;47.992;7.848;2023-09-18T02:43:46;23.90;73.60
2439;DHT22;14509;47.992;7.848;2023-09-18T02:45:52;23.30;74.00
2439;DHT22;14509;47.992;7.848;2023-09-18T02:47:59;23.20;74.00
2439;DHT22;14509;47.992;7.848;2023-09-18T02:50:04;23.20;74.50
2439;DHT22;14509;47.992;7.848;2023-09-18T02:52:22;23.20;74.20
2439;DHT22;14509;47.992;7.848;2023-09-18T02:54:25;23.20;74.10
2439;DHT22;14509;47.992;7.848;2023-09-18T02:56:27;23.20;74.30
2439;DHT22;14509;47.992;7.848;2023-09-18T02:58:31;23.30;74.40
2439;DHT22;14509;47.992;7.848;2023-09-18T03:00:33;23.20;74.10
2439;DHT22;14509;47.992;7.848;2023-09-18T03:02:34;23.20;73.90
2439;DHT22;14509;47.992;7.848;2023-09-18T03:04:36;23.20;73.80
2439;DHT22;14509;47.992;7.848;2023-09-18T03:06:38;23.10;73.50
2439;DHT22;14509;47.992;7.848;2023-09-18T03:08:42;23.10;73.40
2439;DHT22;14509;47.992;7.848;2023-09-18T03:10:44;23.10;73.40
2439;DHT22;14509;47.992;7.848;2023-09-18T03:12:47;23.00;73.20
2439;DHT22;14509;47.992;7.848;2023-09-18T03:14:51;23.10;73.30
2439;DHT22;14509;47.992;7.848;2023-09-18T03:16:53;23.00;73.10
2439;DHT22;14509;47.992;7.848;2023-09-18T03:18:55;23.00;73.00
2439;DHT22;14509;47.992;7.848;2023-09-18T03:20:57;23.00;73.10
2439;DHT22;14509;47.992;7.848;2023-09-18T03:23:01;23.00;73.20
2439;DHT22;14509;47.992;7.848;2023-09-18T03:25:03;23.00;73.10
2439;DHT22;14509;47.992;7.848;2023-09-18T03:27:05;23.00;73.00
2439;DHT22;14509;47.992;7.848;2023-09-18T03:29:08;22.90;72.90
2439;DHT22;14509;47.992;7.848;2023-09-18T03:31:11;22.90;72.90
2439;DHT22;14509;47.992;7.848;2023-09-18T03:33:13;22.90;72.60
2439;DHT22;14509;47.992;7.848;2023-09-18T03:35:14;22.90;72.30
2439;DHT22;14509;47.992;7.848;2023-09-18T03:37:19;22.90;72.20
2439;DHT22;14509;47.992;7.848;2023-09-18T03:39:21;22.90;72.10
2439;DHT22;14509;47.992;7.848;2023-09-18T03:41:23;23.40;73.00
2439;DHT22;14509;47.992;7.848;2023-09-18T03:43:25;23.20;73.10
2439;DHT22;14509;47.992;7.848;2023-09-18T03:45:27;22.80;72.60
2439;DHT22;14509;47.992;7.848;2023-09-18T03:47:30;22.80;72.90
2439;DHT22;14509;47.992;7.848;2023-09-18T03:49:32;23.00;73.20
2439;DHT22;14509;47.992;7.848;2023-09-18T03:51:34;22.70;72.80
2439;DHT22;14509;47.992;7.848;2023-09-18T03:53:36;22.70;72.70
2439;DHT22;14509;47.992;7.848;2023-09-18T03:55:38;22.70;72.90
2439;DHT22;14509;47.992;7.848;2023-09-18T03:57:41;22.70;73.20
2439;DHT22;14509;47.992;7.848;2023-09-18T03:59:43;22.60;73.20
2439;DHT22;14509;47.992;7.848;2023-09-18T04:01:44;22.60;73.00
2439;DHT22;14509;47.992;7.848;2023-09-18T04:03:48;22.80;73.30
2439;DHT22;14509;47.992;7.848;2023-09-18T04:05:50;22.70;73.30
2439;DHT22;14509;47.992;7.848;2023-09-18T04:07:51;23.10;73.70
2439;DHT22;14509;47.992;7.848;2023-09-18T04:09:54;22.70;73.20
2439;DHT22;14509;47.992;7.848;2023-09-18T04:11:56;22.80;73.10
2439;DHT22;14509;47.992;7.848;2023-09-18T04:13:58;22.80;73.10
2439;DHT22;14509;47.992;7.848;2023-09-18T04:16:00;22.80;73.00
2439;DHT22;14509;47.992;7.848;2023-09-18T04:18:05;22.80;73.60
2439;DHT22;14509;47.992;7.848;2023-09-18T04:20:09;22.90;72.80
2439;DHT22;14509;47.992;7.848;2023-09-18T04:22:12;22.90;72.60
2439;DHT22;14509;47.992;7.848;2023-09-18T04:24:14;22.90;72.50
2439;DHT22;14509;47.992;7.848;2023-09-18T04:26:16;22.80;72.60
2439;DHT22;14509;47.992;7.848;2023-09-18T04:28:21;22.80;72.60
2439;DHT22;14509;47.992;7.848;2023-09-18T04:30:23;22.80;72.80
2439;DHT22;14509;47.992;7.848;2023-09-18T04:32:26;22.70;72.40
2439;DHT22;14509;47.992;7.848;2023-09-18T04:34:29;22.80;72.60
2439;DHT22;14509;47.992;7.848;2023-09-18T04:36:33;22.90;73.50
2439;DHT22;14509;47.992;7.848;2023-09-18T04:38:34;23.60;73.20
2439;DHT22;14509;47.992;7.848;2023-09-18T04:40:36;22.90;72.40
2439;DHT22;14509;47.992;7.848;2023-09-18T04:42:37;22.80;72.20
2439;DHT22;14509;47.992;7.848;2023-09-18T04:44:39;22.90;72.40
2439;DHT22;14509;47.992;7.848;2023-09-18T04:46:43;22.90;72.20
2439;DHT22;14509;47.992;7.848;2023-09-18T04:48:45;23.00;72.10
2439;DHT22;14509;47.992;7.848;2023-09-18T04:50:48;22.90;72.10
2439;DHT22;14509;47.992;7.848;2023-09-18T04:52:50;23.00;72.10
2439;DHT22;14509;47.992;7.848;2023-09-18T04:54:53;22.90;72.00
2439;DHT22;14509;47.992;7.848;2023-09-18T04:56:56;22.90;72.00
2439;DHT22;14509;47.992;7.848;2023-09-18T04:58:58;22.90;71.80
2439;DHT22;14509;47.992;7.848;2023-09-18T05:01:01;23.10;72.00
2439;DHT22;14509;47.992;7.848;2023-09-18T05:03:03;23.00;71.60
2439;DHT22;14509;47.992;7.848;2023-09-18T05:05:06;23.00;71.60
2439;DHT22;14509;47.992;7.848;2023-09-18T05:07:09;23.00;71.40
2439;DHT22;14509;47.992;7.848;2023-09-18T05:09:12;23.00;71.00
2439;DHT22;14509;47.992;7.848;2023-09-18T05:11:15;23.00;71.00
2439;DHT22;14509;47.992;7.848;2023-09-18T05:13:19;23.10;71.10
2439;DHT22;14509;47.992;7.848;2023-09-18T05:15:21;23.10;71.00
2439;DHT22;14509;47.992;7.848;2023-09-18T05:17:39;24.50;72.40
2439;DHT22;14509;47.992;7.848;2023-09-18T05:19:41;23.20;71.00
2439;DHT22;14509;47.992;7.848;2023-09-18T05:21:43;23.20;70.80
2439;DHT22;14509;47.992;7.848;2023-09-18T05:23:45;23.30;70.80
2439;DHT22;14509;47.992;7.848;2023-09-18T05:25:48;23.30;70.60
2439;DHT22;14509;47.992;7.848;2023-09-18T05:27:51;23.30;70.50
2439;DHT22;14509;47.992;7.848;2023-09-18T05:29:56;23.30;70.70
2439;DHT22;14509;47.992;7.848;2023-09-18T05:31:58;23.30;70.50
2439;DHT22;14509;47.992;7.848;2023-09-18T05:33:59;23.30;70.60
2439;DHT22;14509;47.992;7.848;2023-09-18T05:36:01;23.40;70.70
2439;DHT22;14509;47.992;7.848;2023-09-18T05:38:04;23.40;70.60
2439;DHT22;14509;47.992;7.848;2023-09-18T05:40:07;23.40;70.50
2439;DHT22;14509;47.992;7.848;2023-09-18T05:42:11;23.40;70.60
2439;DHT22;14509;47.992;7.848;2023-09-18T05:44:13;23.40;70.50
2439;DHT22;14509;47.992;7.848;2023-09-18T05:46:15;23.50;70.60
2439;DHT22;14509;47.992;7.848;2023-09-18T05:48:17;23.50;70.40
2439;DHT22;14509;47.992;7.848;2023-09-18T05:50:19;23.40;70.30
2439;DHT22;14509;47.992;7.848;2023-09-18T05:52:21;23.40;70.20
2439;DHT22;14509;47.992;7.848;2023-09-18T05:54:24;23.40;70.20
2439;DHT22;14509;47.992;7.848;2023-09-18T05:56:26;23.40;70.20
2439;DHT22;14509;47.992;7.848;2023-09-18T05:58:29;23.60;70.30
2439;DHT22;14509;47.992;7.848;2023-09-18T06:00:32;23.50;70.30
2439;DHT22;14509;47.992;7.848;2023-09-18T06:02:34;23.50;70.10
2439;DHT22;14509;47.992;7.848;2023-09-18T06:04:38;23.50;70.00
2439;DHT22;14509;47.992;7.848;2023-09-18T06:06:46;23.50;69.60
2439;DHT22;14509;47.992;7.848;2023-09-18T06:08:48;23.50;69.30
2439;DHT22;14509;47.992;7.848;2023-09-18T06:10:54;23.50;69.00
2439;DHT22;14509;47.992;7.848;2023-09-18T06:12:56;23.50;68.50
2439;DHT22;14509;47.992;7.848;2023-09-18T06:15:00;23.50;68.30
2439;DHT22;14509;47.992;7.848;2023-09-18T06:17:02;23.50;68.00
2439;DHT22;14509;47.992;7.848;2023-09-18T06:19:04;23.50;67.70
2439;DHT22;14509;47.992;7.848;2023-09-18T06:21:05;23.50;67.60
2439;DHT22;14509;47.992;7.848;2023-09-18T06:23:07;23.50;67.70
2439;DHT22;14509;47.992;7.848;2023-09-18T06:25:09;23.50;67.70
2439;DHT22;14509;47.992;7.848;2023-09-18T06:27:11;23.50;67.60
2439;DHT22;14509;47.992;7.848;2023-09-18T06:29:13;23.50;67.40
2439;DHT22;14509;47.992;7.848;2023-09-18T06:31:16;23.40;67.20
2439;DHT22;14509;47.992;7.848;2023-09-18T06:33:19;23.50;67.40
2439;DHT22;14509;47.992;7.848;2023-09-18T06:35:21;23.40;67.40
2439;DHT22;14509;47.992;7.848;2023-09-18T06:37:23;23.50;67.50
2439;DHT22;14509;47.992;7.848;2023-09-18T06:39:25;23.50;67.40
2439;DHT22;14509;47.992;7.848;2023-09-18T06:41:27;23.50;67.30
2439;DHT22;14509;47.992;7.848;2023-09-18T06:43:28;23.50;67.30
2439;DHT22;14509;47.992;7.848;2023-09-18T06:45:30;23.50;67.40
2439;DHT22;14509;47.992;7.848;2023-09-18T06:47:35;23.50;67.50
2439;DHT22;14509;47.992;7.848;2023-09-18T06:49:37;23.50;67.60
2439;DHT22;14509;47.992;7.848;2023-09-18T06:51:39;23.50;67.70
2439;DHT22;14509;47.992;7.848;2023-09-18T06:53:40;24.50;68.70
2439;DHT22;14509;47.992;7.848;2023-09-18T06:55:42;23.50;67.60
2439;DHT22;14509;47.992;7.848;2023-09-18T06:57:44;23.60;67.50
2439;DHT22;14509;47.992;7.848;2023-09-18T06:59:48;23.60;67.50
2439;DHT22;14509;47.992;7.848;2023-09-18T07:01:49;23.60;67.30
2439;DHT22;14509;47.992;7.848;2023-09-18T07:03:53;23.60;67.10
2439;DHT22;14509;47.992;7.848;2023-09-18T07:05:55;24.40;67.80
2439;DHT22;14509;47.992;7.848;2023-09-18T07:07:57;23.60;67.00
2439;DHT22;14509;47.992;7.848;2023-09-18T07:09:59;23.60;67.10
2439;DHT22;14509;47.992;7.848;2023-09-18T07:12:01;23.60;67.10
2439;DHT22;14509;47.992;7.848;2023-09-18T07:14:03;23.60;67.00
2439;DHT22;14509;47.992;7.848;2023-09-18T07:16:07;23.60;67.10
2439;DHT22;14509;47.992;7.848;2023-09-18T07:18:09;23.60;67.00
2439;DHT22;14509;47.992;7.848;2023-09-18T07:20:16;23.60;66.90
2439;DHT22;14509;47.992;7.848;2023-09-18T07:22:18;23.60;66.90
2439;DHT22;14509;47.992;7.848;2023-09-18T07:24:19;23.70;67.20
2439;DHT22;14509;47.992;7.848;2023-09-18T07:26:21;23.80;67.40
2439;DHT22;14509;47.992;7.848;2023-09-18T07:28:23;23.60;67.30
2439;DHT22;14509;47.992;7.848;2023-09-18T07:30:25;25.10;69.00
2439;DHT22;14509;47.992;7.848;2023-09-18T07:32:27;23.60;67.50
2439;DHT22;14509;47.992;7.848;2023-09-18T07:34:29;23.60;67.70
2439;DHT22;14509;47.992;7.848;2023-09-18T07:36:33;23.60;67.80
2439;DHT22;14509;47.992;7.848;2023-09-18T07:38:35;23.60;68.10
2439;DHT22;14509;47.992;7.848;2023-09-18T07:40:37;23.50;68.40
2439;DHT22;14509;47.992;7.848;2023-09-18T07:42:39;23.50;68.60
2439;DHT22;14509;47.992;7.848;2023-09-18T07:44:40;23.50;68.60
2439;DHT22;14509;47.992;7.848;2023-09-18T07:46:41;23.50;68.70
2439;DHT22;14509;47.992;7.848;2023-09-18T07:48:43;23.40;68.70
2439;DHT22;14509;47.992;7.848;2023-09-18T07:50:44;23.50;69.00
2439;DHT22;14509;47.992;7.848;2023-09-18T07:52:47;23.50;69.20
2439;DHT22;14509;47.992;7.848;2023-09-18T07:54:49;23.90;70.40
2439;DHT22;14509;47.992;7.848;2023-09-18T07:56:50;23.50;69.10
2439;DHT22;14509;47.992;7.848;2023-09-18T07:58:52;23.50;69.00
2439;DHT22;14509;47.992;7.848;2023-09-18T08:00:55;23.50;69.10
2439;DHT22;14509;47.992;7.848;2023-09-18T08:02:57;23.40;68.90
2439;DHT22;14509;47.992;7.848;2023-09-18T08:05:01;23.50;69.00
2439;DHT22;14509;47.992;7.848;2023-09-18T08:07:03;23.60;69.00
2439;DHT22;14509;47.992;7.848;2023-09-18T08:09:07;23.40;68.80
2439;DHT22;14509;47.992;7.848;2023-09-18T08:11:14;23.50;68.70
2439;DHT22;14509;47.992;7.848;2023-09-18T08:13:16;23.40;68.60
2439;DHT22;14509;47.992;7.848;2023-09-18T08:15:19;23.50;68.50
2439;DHT22;14509;47.992;7.848;2023-09-18T08:17:21;23.50;68.80
2439;DHT22;14509;47.992;7.848;2023-09-18T08:19:23;23.50;68.70
2439;DHT22;14509;47.992;7.848;2023-09-18T08:21:26;23.50;69.00
2439;DHT22;14509;47.992;7.848;2023-09-18T08:23:29;23.50;69.90
2439;DHT22;14509;47.992;7.848;2023-09-18T08:25:33;23.50;68.80
2439;DHT22;14509;47.992;7.848;2023-09-18T08:27:36;23.50;68.90
2439;DHT22;14509;47.992;7.848;2023-09-18T08:29:40;23.50;68.90
2439;DHT22;14509;47.992;7.848;2023-09-18T08:31:42;23.50;68.70
2439;DHT22;14509;47.992;7.848;2023-09-18T08:33:44;23.50;68.60
2439;DHT22;14509;47.992;7.848;2023-09-18T08:35:46;23.60;68.60
2439;DHT22;14509;47.992;7.848;2023-09-18T08:37:50;23.60;68.50
2439;DHT22;14509;47.992;7.848;2023-09-18T08:39:52;23.70;68.30
2439;DHT22;14509;47.992;7.848;2023-09-18T08:41:59;23.70;67.70
2439;DHT22;14509;47.992;7.848;2023-09-18T08:44:02;23.80;67.40
2439;DHT22;14509;47.992;7.848;2023-09-18T08:46:04;23.90;66.80
2439;DHT22;14509;47.992;7.848;2023-09-18T08:48:06;23.90;66.00
2439;DHT22;14509;47.992;7.848;2023-09-18T08:50:10;24.00;65.50
2439;DHT22;14509;47.992;7.848;2023-09-18T08:52:12;24.00;65.10
2439;DHT22;14509;47.992;7.848;2023-09-18T08:54:16;24.00;64.70
2439;DHT22;14509;47.992;7.848;2023-09-18T08:56:19;25.00;64.30
2439;DHT22;14509;47.992;7.848;2023-09-18T08:58:24;24.00;62.70
2439;DHT22;14509;47.992;7.848;2023-09-18T09:00:26;24.10;62.00
2439;DHT22;14509;47.992;7.848;2023-09-18T09:02:29;23.90;61.10
2439;DHT22;14509;47.992;7.848;2023-09-18T09:04:31;24.00;60.50
2439;DHT22;14509;47.992;7.848;2023-09-18T09:06:33;24.10;59.40
2439;DHT22;14509;47.992;7.848;2023-09-18T09:08:37;24.00;59.20
2439;DHT22;14509;47.992;7.848;2023-09-18T09:10:39;24.00;58.90
2439;DHT22;14509;47.992;7.848;2023-09-18T09:12:49;24.10;58.70
2439;DHT22;14509;47.992;7.848;2023-09-18T09:15:03;24.20;59.10
2439;DHT22;14509;47.992;7.848;2023-09-18T09:17:05;24.30;59.30
2439;DHT22;14509;47.992;7.848;2023-09-18T09:19:07;24.30;59.10
2439;DHT22;14509;47.992;7.848;2023-09-18T09:21:08;24.30;58.80
2439;DHT22;14509;47.992;7.848;2023-09-18T09:23:11;24.40;59.10
2439;DHT22;14509;47.992;7.848;2023-09-18T09:25:23;24.60;59.60
2439;DHT22;14509;47.992;7.848;2023-09-18T09:27:26;24.40;60.30
2439;DHT22;14509;47.992;7.848;2023-09-18T09:29:28;24.40;60.60
2439;DHT22;14509;47.992;7.848;2023-09-18T09:31:32;24.40;60.80
2439;DHT22;14509;47.992;7.848;2023-09-18T09:33:34;24.40;60.90
2439;DHT22;14509;47.992;7.848;2023-09-18T09:35:36;24.40;61.50
2439;DHT22;14509;47.992;7.848;2023-09-18T09:37:38;24.40;61.70
2439;DHT22;14509;47.992;7.848;2023-09-18T09:39:47;24.50;61.90
2439;DHT22;14509;47.992;7.848;2023-09-18T09:41:51;24.50;61.90
2439;DHT22;14509;47.992;7.848;2023-09-18T09:43:53;24.60;62.00
2439;DHT22;14509;47.992;7.848;2023-09-18T09:45:57;24.60;61.50
2439;DHT22;14509;47.992;7.848;2023-09-18T09:48:02;24.70;61.30
2439;DHT22;14509;47.992;7.848;2023-09-18T09:50:09;24.70;61.00
2439;DHT22;14509;47.992;7.848;2023-09-18T09:52:17;24.80;60.60
2439;DHT22;14509;47.992;7.848;2023-09-18T09:54:32;24.70;60.00
2439;DHT22;14509;47.992;7.848;2023-09-18T09:56:42;24.80;60.00
2439;DHT22;14509;47.992;7.848;2023-09-18T09:59:00;24.90;60.20
2439;DHT22;14509;47.992;7.848;2023-09-18T10:01:06;24.80;60.40
2439;DHT22;14509;47.992;7.848;2023-09-18T10:03:15;24.90;60.70
2439;DHT22;14509;47.992;7.848;2023-09-18T10:05:18;25.00;60.60
2439;DHT22;14509;47.992;7.848;2023-09-18T10:07:20;25.10;60.50
2439;DHT22;14509;47.992;7.848;2023-09-18T10:09:24;25.20;60.20
2439;DHT22;14509;47.992;7.848;2023-09-18T10:11:31;25.30;59.90
2439;DHT22;14509;47.992;7.848;2023-09-18T10:13:40;25.40;59.80
2439;DHT22;14509;47.992;7.848;2023-09-18T10:15:44;25.50;59.50
2439;DHT22;14509;47.992;7.848;2023-09-18T10:17:48;25.60;59.40
2439;DHT22;14509;47.992;7.848;2023-09-18T10:20:00;25.60;59.00
2439;DHT22;14509;47.992;7.848;2023-09-18T10:22:23;25.70;58.80
2439;DHT22;14509;47.992;7.848;2023-09-18T10:24:28;26.00;58.60
2439;DHT22;14509;47.992;7.848;2023-09-18T10:26:36;25.90;58.30
2439;DHT22;14509;47.992;7.848;2023-09-18T10:28:43;25.90;58.00
2439;DHT22;14509;47.992;7.848;2023-09-18T10:30:47;26.00;57.50
2439;DHT22;14509;47.992;7.848;2023-09-18T10:32:51;26.10;57.50
2439;DHT22;14509;47.992;7.848;2023-09-18T10:34:55;26.20;57.30
2439;DHT22;14509;47.992;7.848;2023-09-18T10:37:00;26.30;57.30
2439;DHT22;14509;47.992;7.848;2023-09-18T10:39:03;26.40;56.70
2439;DHT22;14509;47.992;7.848;2023-09-18T10:41:09;26.50;56.60
2439;DHT22;14509;47.992;7.848;2023-09-18T10:43:16;26.60;56.40
2439;DHT22;14509;47.992;7.848;2023-09-18T10:45:19;26.80;56.20
2439;DHT22;14509;47.992;7.848;2023-09-18T10:47:20;27.00;55.50
2439;DHT22;14509;47.992;7.848;2023-09-18T10:49:24;27.20;54.70
2439;DHT22;14509;47.992;7.848;2023-09-18T10:51:28;27.80;55.10
2439;DHT22;14509;47.992;7.848;2023-09-18T10:53:31;27.80;54.20
2439;DHT22;14509;47.992;7.848;2023-09-18T10:55:34;28.00;53.70
2439;DHT22;14509;47.992;7.848;2023-09-18T10:57:37;28.20;54.00
2439;DHT22;14509;47.992;7.848;2023-09-18T10:59:46;28.50;52.90
2439;DHT22;14509;47.992;7.848;2023-09-18T11:01:51;28.60;51.90
2439;DHT22;14509;47.992;7.848;2023-09-18T11:03:58;28.90;51.00
2439;DHT22;14509;47.992;7.848;2023-09-18T11:06:03;29.30;50.10
2439;DHT22;14509;47.992;7.848;2023-09-18T11:08:27;29.20;49.20
2439;DHT22;14509;47.992;7.848;2023-09-18T11:10:29;29.40;48.90
2439;DHT22;14509;47.992;7.848;2023-09-18T11:12:43;29.30;48.50
2439;DHT22;14509;47.992;7.848;2023-09-18T11:14:47;29.30;48.60
2439;DHT22;14509;47.992;7.848;2023-09-18T11:16:50;29.30;48.50
2439;DHT22;14509;47.992;7.848;2023-09-18T11:18:52;29.30;48.60
2439;DHT22;14509;47.992;7.848;2023-09-18T11:21:07;29.30;48.70
2439;DHT22;14509;47.992;7.848;2023-09-18T11:23:16;29.30;49.10
2439;DHT22;14509;47.992;7.848;2023-09-18T11:25:35;29.40;48.60
2439;DHT22;14509;47.992;7.848;2023-09-18T11:27:52;29.50;47.80
2439;DHT22;14509;47.992;7.848;2023-09-18T11:29:56;29.50;47.90
2439;DHT22;14509;47.992;7.848;2023-09-18T11:31:59;29.60;48.00
2439;DHT22;14509;47.992;7.848;2023-09-18T11:34:11;29.90;47.90
2439;DHT22;14509;47.992;7.848;2023-09-18T11:36:28;30.10;47.20
2439;DHT22;14509;47.992;7.848;2023-09-18T11:38:31;30.30;46.90
2439;DHT22;14509;47.992;7.848;2023-09-18T11:40:38;30.50;46.00
2439;DHT22;14509;47.992;7.848;2023-09-18T11:43:21;30.70;45.60
2439;DHT22;14509;47.992;7.848;2023-09-18T11:45:27;30.80;44.10
2439;DHT22;14509;47.992;7.848;2023-09-18T11:47:30;30.90;44.50
2439;DHT22;14509;47.992;7.848;2023-09-18T11:49:33;30.90;42.10
2439;DHT22;14509;47.992;7.848;2023-09-18T11:51:35;30.90;41.80
2439;DHT22;14509;47.992;7.848;2023-09-18T11:53:38;31.00;42.30
2439;DHT22;14509;47.992;7.848;2023-09-18T11:55:44;31.00;41.90
2439;DHT22;14509;47.992;7.848;2023-09-18T11:57:46;30.90;42.00
2439;DHT22;14509;47.992;7.848;2023-09-18T11:59:49;30.90;42.90
2439;DHT22;14509;47.992;7.848;2023-09-18T12:01:54;30.90;42.80
2439;DHT22;14509;47.992;7.848;2023-09-18T12:04:03;30.80;42.50
2439;DHT22;14509;47.992;7.848;2023-09-18T12:06:08;30.70;42.60
2439;DHT22;14509;47.992;7.848;2023-09-18T12:08:13;30.70;41.70
2439;DHT22;14509;47.992;7.848;2023-09-18T12:10:16;30.60;41.40
2439;DHT22;14509;47.992;7.848;2023-09-18T12:12:21;30.50;41.30
2439;DHT22;14509;47.992;7.848;2023-09-18T12:14:23;30.50;41.60
2439;DHT22;14509;47.992;7.848;2023-09-18T12:16:26;30.40;41.40
2439;DHT22;14509;47.992;7.848;2023-09-18T12:18:28;30.50;41.90
2439;DHT22;14509;47.992;7.848;2023-09-18T12:20:30;30.50;41.90
2439;DHT22;14509;47.992;7.848;2023-09-18T12:22:33;30.50;41.70
2439;DHT22;14509;47.992;7.848;2023-09-18T12:24:37;30.60;41.90
2439;DHT22;14509;47.992;7.848;2023-09-18T12:26:40;30.60;42.00
2439;DHT22;14509;47.992;7.848;2023-09-18T12:28:44;30.60;42.10
2439;DHT22;14509;47.992;7.848;2023-09-18T12:30:46;30.60;41.90
2439;DHT22;14509;47.992;7.848;2023-09-18T12:32:48;30.60;41.80
2439;DHT22;14509;47.992;7.848;2023-09-18T12:34:51;30.70;42.00
2439;DHT22;14509;47.992;7.848;2023-09-18T12:36:55;30.70;42.10
2439;DHT22;14509;47.992;7.848;2023-09-18T12:38:59;30.80;42.80
2439;DHT22;14509;47.992;7.848;2023-09-18T12:41:02;30.80;43.20
2439;DHT22;14509;47.992;7.848;2023-09-18T12:43:07;30.90;43.10
2439;DHT22;14509;47.992;7.848;2023-09-18T12:45:10;31.10;42.80
2439;DHT22;14509;47.992;7.848;2023-09-18T12:47:12;31.30;42.50
2439;DHT22;14509;47.992;7.848;2023-09-18T12:49:18;31.40;41.70
2439;DHT22;14509;47.992;7.848;2023-09-18T12:51:28;31.60;41.80
2439;DHT22;14509;47.992;7.848;2023-09-18T12:53:32;31.80;40.90
2439;DHT22;14509;47.992;7.848;2023-09-18T12:55:35;31.90;40.20
2439;DHT22;14509;47.992;7.848;2023-09-18T12:57:36;32.10;39.80
2439;DHT22;14509;47.992;7.848;2023-09-18T12:59:41;32.10;39.20
2439;DHT22;14509;47.992;7.848;2023-09-18T13:01:48;32.10;39.30
2439;DHT22;14509;47.992;7.848;2023-09-18T13:03:54;32.20;39.00
2439;DHT22;14509;47.992;7.848;2023-09-18T13:06:08;32.20;38.70
2439;DHT22;14509;47.992;7.848;2023-09-18T13:08:10;32.10;37.40
2439;DHT22;14509;47.992;7.848;2023-09-18T13:10:13;31.90;37.40
2439;DHT22;14509;47.992;7.848;2023-09-18T13:12:16;31.90;37.80
2439;DHT22;14509;47.992;7.848;2023-09-18T13:14:18;31.80;38.00
2439;DHT22;14509;47.992;7.848;2023-09-18T13:16:22;31.80;37.30
2439;DHT22;14509;47.992;7.848;2023-09-18T13:18:27;31.80;37.20
2439;DHT22;14509;47.992;7.848;2023-09-18T13:20:29;31.80;37.30
2439;DHT22;14509;47.992;7.848;2023-09-18T13:22:32;31.70;36.40
2439;DHT22;14509;47.992;7.848;2023-09-18T13:24:34;31.70;36.40
2439;DHT22;14509;47.992;7.848;2023-09-18T13:26:36;31.70;36.60
2439;DHT22;14509;47.992;7.848;2023-09-18T13:28:38;31.70;36.00
2439;DHT22;14509;47.992;7.848;2023-09-18T13:30:42;31.70;36.20
2439;DHT22;14509;47.992;7.848;2023-09-18T13:32:44;31.70;36.20
2439;DHT22;14509;47.992;7.848;2023-09-18T13:34:50;31.70;35.80
2439;DHT22;14509;47.992;7.848;2023-09-18T13:36:53;31.60;36.30
2439;DHT22;14509;47.992;7.848;2023-09-18T13:38:55;31.60;36.10
2439;DHT22;14509;47.992;7.848;2023-09-18T13:40:57;31.60;36.30
2439;DHT22;14509;47.992;7.848;2023-09-18T13:42:59;31.60;36.60
2439;DHT22;14509;47.992;7.848;2023-09-18T13:45:02;31.60;36.70
2439;DHT22;14509;47.992;7.848;2023-09-18T13:47:05;31.60;36.50
2439;DHT22;14509;47.992;7.848;2023-09-18T13:49:07;31.70;36.60
2439;DHT22;14509;47.992;7.848;2023-09-18T13:51:10;31.70;36.80
2439;DHT22;14509;47.992;7.848;2023-09-18T13:53:12;31.80;36.90
2439;DHT22;14509;47.992;7.848;2023-09-18T13:55:14;32.00;36.70
2439;DHT22;14509;47.992;7.848;2023-09-18T13:57:16;32.00;35.80
2439;DHT22;14509;47.992;7.848;2023-09-18T13:59:19;32.00;35.60
2439;DHT22;14509;47.992;7.848;2023-09-18T14:01:21;32.10;35.90
2439;DHT22;14509;47.992;7.848;2023-09-18T14:03:23;32.00;36.30
2439;DHT22;14509;47.992;7.848;2023-09-18T14:05:25;32.00;35.70
2439;DHT22;14509;47.992;7.848;2023-09-18T14:07:29;32.00;35.80
2439;DHT22;14509;47.992;7.848;2023-09-18T14:09:31;31.90;35.30
2439;DHT22;14509;47.992;7.848;2023-09-18T14:11:32;31.80;35.40
2439;DHT22;14509;47.992;7.848;2023-09-18T14:13:38;31.60;35.80
2439;DHT22;14509;47.992;7.848;2023-09-18T14:15:40;31.60;36.10
2439;DHT22;14509;47.992;7.848;2023-09-18T14:17:42;31.50;36.20
2439;DHT22;14509;47.992;7.848;2023-09-18T14:19:44;31.40;36.40
2439;DHT22;14509;47.992;7.848;2023-09-18T14:21:45;31.40;36.60
2439;DHT22;14509;47.992;7.848;2023-09-18T14:23:48;31.30;36.70
2439;DHT22;14509;47.992;7.848;2023-09-18T14:25:50;31.30;37.00
2439;DHT22;14509;47.992;7.848;2023-09-18T14:27:52;31.40;37.30
2439;DHT22;14509;47.992;7.848;2023-09-18T14:29:54;31.70;37.10
2439;DHT22;14509;47.992;7.848;2023-09-18T14:31:55;32.10;36.60
2439;DHT22;14509;47.992;7.848;2023-09-18T14:33:57;32.60;36.20
2439;DHT22;14509;47.992;7.848;2023-09-18T14:35:58;32.90;34.70
2439;DHT22;14509;47.992;7.848;2023-09-18T14:38:00;33.20;34.20
2439;DHT22;14509;47.992;7.848;2023-09-18T14:40:06;33.30;33.20
2439;DHT22;14509;47.992;7.848;2023-09-18T14:42:12;33.20;32.70
2439;DHT22;14509;47.992;7.848;2023-09-18T14:44:14;33.00;33.40
2439;DHT22;14509;47.992;7.848;2023-09-18T14:46:16;32.80;33.50
2439;DHT22;14509;47.992;7.848;2023-09-18T14:48:18;32.60;34.10
2439;DHT22;14509;47.992;7.848;2023-09-18T14:50:20;32.50;34.60
2439;DHT22;14509;47.992;7.848;2023-09-18T14:52:22;32.30;34.70
2439;DHT22;14509;47.992;7.848;2023-09-18T14:54:26;32.30;34.90
2439;DHT22;14509;47.992;7.848;2023-09-18T14:56:30;32.20;34.90
2439;DHT22;14509;47.992;7.848;2023-09-18T14:58:32;32.10;34.80
2439;DHT22;14509;47.992;7.848;2023-09-18T15:00:32;32.10;35.20
2439;DHT22;14509;47.992;7.848;2023-09-18T15:02:35;32.10;35.50
2439;DHT22;14509;47.992;7.848;2023-09-18T15:04:37;32.00;35.20
2439;DHT22;14509;47.992;7.848;2023-09-18T15:06:39;32.00;35.40
2439;DHT22;14509;47.992;7.848;2023-09-18T15:08:41;32.00;35.50
2439;DHT22;14509;47.992;7.848;2023-09-18T15:10:43;32.00;35.30
2439;DHT22;14509;47.992;7.848;2023-09-18T15:12:46;32.00;35.30
2439;DHT22;14509;47.992;7.848;2023-09-18T15:14:48;32.00;35.40
2439;DHT22;14509;47.992;7.848;2023-09-18T15:16:51;31.90;35.20
2439;DHT22;14509;47.992;7.848;2023-09-18T15:18:53;31.80;35.30
2439;DHT22;14509;47.992;7.848;2023-09-18T15:20:55;31.80;35.60
2439;DHT22;14509;47.992;7.848;2023-09-18T15:22:57;31.70;35.70
2439;DHT22;14509;47.992;7.848;2023-09-18T15:24:59;31.60;35.90
2439;DHT22;14509;47.992;7.848;2023-09-18T15:27:02;31.50;36.10
2439;DHT22;14509;47.992;7.848;2023-09-18T15:29:05;31.40;35.90
2439;DHT22;14509;47.992;7.848;2023-09-18T15:31:08;31.30;36.10
2439;DHT22;14509;47.992;7.848;2023-09-18T15:33:10;31.20;36.40
2439;DHT22;14509;47.992;7.848;2023-09-18T15:35:13;31.10;36.90
2439;DHT22;14509;47.992;7.848;2023-09-18T15:37:15;30.90;36.50
2439;DHT22;14509;47.992;7.848;2023-09-18T15:39:35;30.80;37.00
2439;DHT22;14509;47.992;7.848;2023-09-18T15:41:37;30.60;37.30
2439;DHT22;14509;47.992;7.848;2023-09-18T15:43:39;30.50;37.50
2439;DHT22;14509;47.992;7.848;2023-09-18T15:45:43;30.60;37.90
2439;DHT22;14509;47.992;7.848;2023-09-18T15:47:45;30.30;38.00
2439;DHT22;14509;47.992;7.848;2023-09-18T15:49:47;30.00;38.90
2439;DHT22;14509;47.992;7.848;2023-09-18T15:51:49;30.10;39.90
2439;DHT22;14509;47.992;7.848;2023-09-18T15:53:51;30.30;40.80